createdAt,value
2022-08-05T00:00:50.374Z,23.88
2022-08-05T00:01:49.861Z,23.91
2022-08-05T00:02:51.648Z,23.93
2022-08-05T00:03:49.703Z,23.84
2022-08-05T00:04:55.498Z,23.78
2022-08-05T00:06:06.562Z,23.73
2022-08-05T00:06:51.875Z,23.73
2022-08-05T00:08:00.060Z,23.65
2022-08-05T00:08:50.671Z,23.65
2022-08-05T00:09:49.659Z,23.63
2022-08-05T00:10:49.657Z,23.47
2022-08-05T00:11:56.034Z,23.44
2022-08-05T00:12:56.811Z,23.47
2022-08-05T00:13:52.969Z,23.46
2022-08-05T00:14:51.641Z,23.46
2022-08-05T00:15:54.872Z,23.44
2022-08-05T00:16:53.094Z,23.44
2022-08-05T00:17:49.591Z,23.43
2022-08-05T00:18:49.579Z,23.46
2022-08-05T00:20:01.974Z,23.48
2022-08-05T00:20:50.602Z,23.46
2022-08-05T00:21:49.574Z,23.41
2022-08-05T00:22:57.383Z,23.43
2022-08-05T00:23:53.606Z,23.41
2022-08-05T00:24:55.063Z,23.34
2022-08-05T00:25:49.542Z,23.48
2022-08-05T00:26:51.675Z,23.43
2022-08-05T00:27:49.521Z,23.34
2022-08-05T00:28:50.219Z,23.27
2022-08-05T00:29:50.230Z,23.32
2022-08-05T00:30:52.078Z,23.23
2022-08-05T00:32:50.410Z,23.36
2022-08-05T00:34:53.635Z,23.23
2022-08-05T00:35:05.595Z,23.20
2022-08-05T00:36:16.304Z,23.20
2022-08-05T00:37:11.701Z,23.27
2022-08-05T00:37:54.208Z,23.25
2022-08-05T00:38:52.615Z,23.31
2022-08-05T00:39:58.132Z,23.24
2022-08-05T00:40:53.392Z,23.31
2022-08-05T00:41:55.473Z,23.46
2022-08-05T00:42:51.435Z,23.40
2022-08-05T00:43:51.421Z,23.34
2022-08-05T00:44:51.422Z,23.34
2022-08-05T00:45:51.402Z,23.40
2022-08-05T00:46:53.939Z,23.43
2022-08-05T00:47:56.553Z,23.36
2022-08-05T00:48:52.372Z,23.32
2022-08-05T00:49:51.907Z,23.28
2022-08-05T00:50:51.384Z,23.18
2022-08-05T00:51:52.310Z,23.23
2022-08-05T00:52:53.345Z,23.09
2022-08-05T00:54:02.722Z,23.15
2022-08-05T00:54:52.334Z,23.13
2022-08-05T00:55:51.362Z,23.10
2022-08-05T00:56:51.939Z,23.05
2022-08-05T00:57:58.431Z,23.08
2022-08-05T00:58:52.303Z,23.02
2022-08-05T00:59:51.306Z,23.12
2022-08-05T01:00:51.363Z,23.09
2022-08-05T01:01:51.374Z,23.05
2022-08-05T01:02:51.295Z,23.08
2022-08-05T01:03:51.268Z,23.03
2022-08-05T01:04:51.286Z,23.00
2022-08-05T01:05:51.568Z,23.09
2022-08-05T01:06:52.054Z,23.20
2022-08-05T01:08:40.698Z,23.12
2022-08-05T01:08:52.224Z,23.10
2022-08-05T01:09:55.718Z,23.28
2022-08-05T01:10:51.610Z,23.17
2022-08-05T01:11:51.740Z,23.23
2022-08-05T01:13:00.397Z,23.12
2022-08-05T01:13:57.373Z,23.27
2022-08-05T01:14:52.166Z,23.10
2022-08-05T01:15:51.171Z,23.13
2022-08-05T01:16:52.231Z,23.20
2022-08-05T01:17:53.992Z,23.13
2022-08-05T01:18:56.402Z,23.17
2022-08-05T01:20:00.722Z,23.12
2022-08-05T01:20:52.117Z,23.17
2022-08-05T01:21:51.138Z,23.09
2022-08-05T01:22:51.115Z,23.15
2022-08-05T01:23:53.178Z,23.15
2022-08-05T01:24:51.096Z,23.15
2022-08-05T01:25:53.620Z,23.32
2022-08-05T01:26:51.080Z,23.21
2022-08-05T01:27:55.476Z,23.17
2022-08-05T01:28:51.054Z,23.17
2022-08-05T01:29:51.725Z,23.20
2022-08-05T01:30:53.757Z,23.25
2022-08-05T01:31:51.029Z,23.31
2022-08-05T01:32:51.033Z,23.31
2022-08-05T01:33:51.955Z,23.37
2022-08-05T01:34:51.012Z,23.27
2022-08-05T01:35:53.281Z,23.31
2022-08-05T01:36:50.995Z,23.36
2022-08-05T01:37:50.984Z,23.40
2022-08-05T01:38:51.029Z,23.43
2022-08-05T01:39:51.006Z,23.46
2022-08-05T01:40:50.959Z,23.44
2022-08-05T01:41:50.953Z,23.54
2022-08-05T01:42:50.965Z,23.56
2022-08-05T01:43:50.965Z,23.56
2022-08-05T01:44:54.159Z,23.56
2022-08-05T01:45:56.603Z,23.61
2022-08-05T01:46:51.915Z,23.65
2022-08-05T01:47:54.422Z,23.81
2022-08-05T01:48:50.903Z,23.76
2022-08-05T01:50:02.078Z,23.88
2022-08-05T01:50:51.877Z,23.87
2022-08-05T01:51:52.049Z,23.91
2022-08-05T01:52:50.908Z,23.99
2022-08-05T01:53:57.303Z,23.93
2022-08-05T01:54:52.790Z,23.91
2022-08-05T01:55:50.846Z,23.91
2022-08-05T01:58:13.648Z,23.81
2022-08-05T01:58:18.740Z,23.84
2022-08-05T01:58:52.097Z,23.84
2022-08-05T01:59:50.820Z,23.78
2022-08-05T02:00:50.832Z,23.77
2022-08-05T02:01:50.813Z,23.66
2022-08-05T02:02:53.636Z,23.81
2022-08-05T02:03:50.797Z,23.69
2022-08-05T02:04:50.781Z,23.71
2022-08-05T02:05:50.786Z,23.59
2022-08-05T02:06:51.575Z,23.46
2022-08-05T02:07:59.846Z,23.37
2022-08-05T02:08:58.267Z,23.27
2022-08-05T02:09:51.746Z,23.21
2022-08-05T02:10:50.736Z,23.17
2022-08-05T02:11:52.234Z,23.09
2022-08-05T02:12:50.973Z,23.12
2022-08-05T02:13:53.764Z,23.12
2022-08-05T02:14:50.696Z,23.25
2022-08-05T02:15:50.689Z,23.10
2022-08-05T02:16:52.193Z,23.23
2022-08-05T02:18:30.966Z,23.37
2022-08-05T02:18:51.676Z,23.25
2022-08-05T02:19:50.658Z,23.36
2022-08-05T02:20:50.657Z,23.31
2022-08-05T02:21:51.587Z,23.43
2022-08-05T02:22:50.634Z,23.37
2022-08-05T02:23:50.621Z,23.41
2022-08-05T02:24:51.396Z,23.44
2022-08-05T02:25:50.730Z,23.43
2022-08-05T02:26:53.932Z,23.44
2022-08-05T02:27:58.911Z,23.55
2022-08-05T02:28:51.586Z,23.50
2022-08-05T02:29:59.423Z,23.41
2022-08-05T02:30:54.318Z,23.20
2022-08-05T02:31:50.555Z,22.85
2022-08-05T02:32:50.560Z,22.44
2022-08-05T02:33:57.871Z,22.04
2022-08-05T02:34:55.041Z,21.75
2022-08-05T02:35:56.280Z,21.42
2022-08-05T02:36:52.525Z,21.22
2022-08-05T02:37:53.968Z,21.00
2022-08-05T02:38:52.792Z,20.96
2022-08-05T02:39:51.757Z,20.96
2022-08-05T02:40:50.487Z,20.84
2022-08-05T02:42:00.581Z,20.70
2022-08-05T02:42:52.972Z,20.65
2022-08-05T02:44:02.222Z,20.56
2022-08-05T02:44:52.089Z,20.51
2022-08-05T02:45:52.294Z,20.43
2022-08-05T02:46:58.663Z,20.31
2022-08-05T02:48:07.017Z,20.32
2022-08-05T02:48:51.424Z,20.21
2022-08-05T02:49:51.094Z,20.19
2022-08-05T02:50:50.441Z,20.24
2022-08-05T02:52:04.006Z,20.25
2022-08-05T02:52:51.400Z,20.16
2022-08-05T02:53:50.383Z,20.26
2022-08-05T02:54:52.144Z,20.21
2022-08-05T02:55:54.139Z,20.26
2022-08-05T02:56:51.366Z,20.21
2022-08-05T02:58:09.414Z,20.26
2022-08-05T02:58:52.675Z,20.19
2022-08-05T02:59:52.023Z,20.21
2022-08-05T03:00:50.325Z,20.22
2022-08-05T03:01:50.403Z,20.24
2022-08-05T03:02:50.322Z,20.22
2022-08-05T03:04:03.195Z,20.13
2022-08-05T03:04:53.158Z,20.18
2022-08-05T03:06:54.658Z,20.19
2022-08-05T03:06:55.565Z,20.10
2022-08-05T03:08:06.733Z,20.11
2022-08-05T03:08:52.213Z,20.18
2022-08-05T03:09:51.986Z,20.06
2022-08-05T03:11:02.350Z,20.11
2022-08-05T03:11:56.042Z,20.07
2022-08-05T03:12:51.887Z,20.10
2022-08-05T03:13:51.718Z,20.19
2022-08-05T03:14:51.228Z,20.22
2022-08-05T03:15:50.210Z,20.11
2022-08-05T03:16:51.804Z,20.21
2022-08-05T03:17:50.204Z,20.18
2022-08-05T03:18:50.192Z,20.19
2022-08-05T03:19:50.186Z,20.25
2022-08-05T03:20:50.391Z,20.21
2022-08-05T03:21:50.204Z,20.25
2022-08-05T03:22:50.617Z,20.29
2022-08-05T03:23:50.158Z,20.28
2022-08-05T03:24:51.166Z,20.19
2022-08-05T03:26:04.779Z,20.21
2022-08-05T03:26:51.140Z,20.21
2022-08-05T03:27:59.936Z,20.22
2022-08-05T03:28:51.103Z,20.21
2022-08-05T03:30:08.049Z,20.29
2022-08-05T03:30:51.083Z,20.22
2022-08-05T03:31:57.417Z,20.26
2022-08-05T03:32:51.080Z,20.34
2022-08-05T03:33:53.077Z,20.39
2022-08-05T03:34:51.337Z,20.22
2022-08-05T03:35:50.047Z,20.36
2022-08-05T03:36:50.051Z,20.34
2022-08-05T03:37:50.044Z,20.32
2022-08-05T03:38:53.372Z,20.36
2022-08-05T03:40:00.838Z,20.34
2022-08-05T03:40:51.056Z,20.29
2022-08-05T03:41:50.009Z,20.39
2022-08-05T03:42:51.713Z,20.36
2022-08-05T03:44:08.020Z,20.36
2022-08-05T03:44:50.984Z,20.44
2022-08-05T03:45:58.117Z,20.37
2022-08-05T03:46:50.969Z,20.39
2022-08-05T03:47:49.980Z,20.37
2022-08-05T03:48:50.619Z,20.41
2022-08-05T03:49:52.054Z,20.51
2022-08-05T03:50:49.934Z,20.50
2022-08-05T03:52:38.780Z,20.43
2022-08-05T03:55:51.171Z,20.62
2022-08-05T03:55:52.225Z,20.50
2022-08-05T03:55:54.207Z,20.59
2022-08-05T03:56:11.707Z,20.60
2022-08-05T03:56:50.893Z,20.51
2022-08-05T03:57:50.249Z,20.51
2022-08-05T03:58:51.121Z,20.47
2022-08-05T03:59:55.022Z,20.60
2022-08-05T04:00:51.410Z,20.59
2022-08-05T04:01:49.892Z,20.60
2022-08-05T04:02:58.696Z,20.67
2022-08-05T04:04:09.146Z,20.75
2022-08-05T04:04:50.818Z,20.74
2022-08-05T04:05:49.810Z,20.67
2022-08-05T04:06:51.162Z,20.69
2022-08-05T04:07:57.903Z,20.65
2022-08-05T04:08:50.787Z,20.66
2022-08-05T04:09:53.828Z,20.77
2022-08-05T04:10:49.781Z,20.70
2022-08-05T04:11:50.697Z,20.75
2022-08-05T04:12:49.753Z,20.90
2022-08-05T04:13:53.402Z,20.92
2022-08-05T04:14:49.749Z,20.95
2022-08-05T04:16:02.764Z,20.93
2022-08-05T04:16:50.720Z,20.90
2022-08-05T04:17:57.168Z,20.88
2022-08-05T04:18:54.210Z,21.05
2022-08-05T04:19:54.325Z,20.99
2022-08-05T04:20:49.702Z,21.02
2022-08-05T04:22:09.390Z,21.06
2022-08-05T04:22:50.674Z,20.95
2022-08-05T04:24:04.716Z,20.95
2022-08-05T04:24:52.552Z,21.00
2022-08-05T04:25:57.123Z,21.02
2022-08-05T04:26:50.646Z,21.05
2022-08-05T04:27:57.395Z,21.02
2022-08-05T04:28:51.895Z,21.05
2022-08-05T04:29:49.641Z,21.05
2022-08-05T04:30:49.601Z,20.97
2022-08-05T04:31:50.655Z,21.09
2022-08-05T04:32:49.633Z,21.06
2022-08-05T04:34:17.872Z,21.14
2022-08-05T04:34:50.600Z,21.17
2022-08-05T04:36:11.084Z,21.20
2022-08-05T04:36:50.593Z,21.14
2022-08-05T04:38:03.012Z,21.27
2022-08-05T04:38:50.976Z,21.21
2022-08-05T04:39:52.928Z,21.18
2022-08-05T04:40:50.882Z,21.09
2022-08-05T04:41:51.217Z,21.12
2022-08-05T04:42:49.701Z,21.18
2022-08-05T04:43:52.810Z,21.24
2022-08-05T04:44:49.498Z,21.18
2022-08-05T04:45:55.613Z,21.14
2022-08-05T04:46:50.493Z,21.07
2022-08-05T04:47:49.532Z,21.14
2022-08-05T04:48:49.461Z,21.12
2022-08-05T04:50:01.879Z,21.12
2022-08-05T04:51:01.870Z,21.15
2022-08-05T04:51:50.447Z,21.24
2022-08-05T04:52:50.429Z,21.12
2022-08-05T04:53:49.432Z,21.14
2022-08-05T04:54:49.579Z,21.11
2022-08-05T04:56:14.812Z,21.11
2022-08-05T04:56:50.416Z,21.11
2022-08-05T04:57:54.059Z,21.14
2022-08-05T04:58:50.388Z,21.12
2022-08-05T04:59:49.383Z,21.11
2022-08-05T05:00:50.785Z,21.14
2022-08-05T05:02:06.927Z,21.12
2022-08-05T05:02:50.424Z,21.21
2022-08-05T05:03:49.352Z,21.24
2022-08-05T05:04:50.541Z,21.14
2022-08-05T05:06:40.020Z,21.25
2022-08-05T05:06:51.940Z,21.15
2022-08-05T05:07:56.212Z,21.14
2022-08-05T05:08:50.312Z,21.12
2022-08-05T05:09:49.306Z,21.21
2022-08-05T05:10:55.899Z,21.11
2022-08-05T05:11:55.681Z,21.14
2022-08-05T05:12:50.581Z,21.20
2022-08-05T05:13:49.284Z,21.18
2022-08-05T05:14:50.758Z,21.11
2022-08-05T05:15:57.177Z,21.12
2022-08-05T05:16:50.519Z,21.02
2022-08-05T05:17:56.360Z,21.14
2022-08-05T05:19:09.222Z,21.07
2022-08-05T05:19:51.224Z,20.96
2022-08-05T05:20:50.455Z,20.97
2022-08-05T05:21:49.224Z,20.97
2022-08-05T05:22:50.199Z,21.05
2022-08-05T05:24:03.991Z,21.12
2022-08-05T05:24:56.758Z,21.07
2022-08-05T05:25:50.169Z,21.17
2022-08-05T05:26:51.926Z,21.20
2022-08-05T05:27:53.980Z,21.09
2022-08-05T05:28:50.154Z,21.00
2022-08-05T05:30:05.071Z,21.02
2022-08-05T05:30:50.140Z,21.12
2022-08-05T05:31:49.296Z,21.12
2022-08-05T05:32:49.235Z,21.11
2022-08-05T05:33:59.677Z,21.09
2022-08-05T05:34:52.499Z,21.20
2022-08-05T05:35:49.093Z,21.12
2022-08-05T05:36:51.233Z,21.09
2022-08-05T05:37:59.593Z,21.15
2022-08-05T05:38:50.077Z,21.22
2022-08-05T05:39:49.156Z,21.12
2022-08-05T05:40:51.267Z,21.12
2022-08-05T05:41:54.027Z,21.11
2022-08-05T05:42:50.048Z,21.09
2022-08-05T05:43:57.293Z,20.97
2022-08-05T05:44:50.020Z,20.87
2022-08-05T05:45:49.013Z,20.85
2022-08-05T05:46:49.177Z,20.87
2022-08-05T05:48:06.141Z,20.87
2022-08-05T05:48:49.980Z,20.92
2022-08-05T05:49:52.628Z,20.90
2022-08-05T05:50:49.970Z,20.96
2022-08-05T05:51:49.957Z,20.93
2022-08-05T05:52:49.210Z,20.97
2022-08-05T05:53:57.284Z,20.97
2022-08-05T05:54:51.274Z,21.02
2022-08-05T05:55:52.470Z,21.05
2022-08-05T05:56:50.655Z,21.05
2022-08-05T05:57:52.409Z,21.07
2022-08-05T05:58:48.925Z,20.99
2022-08-05T05:59:49.203Z,21.05
2022-08-05T06:00:48.891Z,21.15
2022-08-05T06:01:57.631Z,21.14
2022-08-05T06:02:49.879Z,21.17
2022-08-05T06:04:01.256Z,21.15
2022-08-05T06:04:49.939Z,21.21
2022-08-05T06:05:53.962Z,21.18
2022-08-05T06:06:49.845Z,21.21
2022-08-05T06:07:57.834Z,21.06
2022-08-05T06:08:49.847Z,21.06
2022-08-05T06:09:59.820Z,21.06
2022-08-05T06:10:52.923Z,21.06
2022-08-05T06:11:59.337Z,21.06
2022-08-05T06:12:49.801Z,21.14
2022-08-05T06:13:53.809Z,21.17
2022-08-05T06:14:49.788Z,21.21
2022-08-05T06:16:30.805Z,21.24
2022-08-05T06:16:49.760Z,21.30
2022-08-05T06:17:52.807Z,21.40
2022-08-05T06:18:48.751Z,21.52
2022-08-05T06:19:56.861Z,21.42
2022-08-05T06:20:49.732Z,21.40
2022-08-05T06:21:49.829Z,21.50
2022-08-05T06:22:49.712Z,21.61
2022-08-05T06:23:49.856Z,21.57
2022-08-05T06:24:48.873Z,21.62
2022-08-05T06:26:12.138Z,21.73
2022-08-05T06:26:51.964Z,21.75
2022-08-05T06:28:10.501Z,21.66
2022-08-05T06:28:49.674Z,21.80
2022-08-05T06:30:02.700Z,21.82
2022-08-05T06:30:50.657Z,21.75
2022-08-05T06:31:48.670Z,21.77
2022-08-05T06:32:50.560Z,21.85
2022-08-05T06:34:08.025Z,21.85
2022-08-05T06:34:53.495Z,21.83
2022-08-05T06:36:07.066Z,21.93
2022-08-05T06:36:57.107Z,21.93
2022-08-05T06:37:57.857Z,22.07
2022-08-05T06:38:49.579Z,22.10
2022-08-05T06:39:48.653Z,22.13
2022-08-05T06:40:49.450Z,22.18
2022-08-05T06:41:48.574Z,22.20
2022-08-05T06:42:48.562Z,22.17
2022-08-05T06:43:57.634Z,22.28
2022-08-05T06:44:50.094Z,22.36
2022-08-05T06:46:06.552Z,22.41
2022-08-05T06:46:51.110Z,22.55
2022-08-05T06:48:46.858Z,22.88
2022-08-05T06:48:56.470Z,23.20
2022-08-05T06:50:01.543Z,23.58
2022-08-05T06:50:49.983Z,23.81
2022-08-05T06:51:48.491Z,24.18
2022-08-05T06:53:03.630Z,24.42
2022-08-05T06:53:53.547Z,24.84
2022-08-05T06:54:53.283Z,24.95
2022-08-05T06:55:48.454Z,24.95
2022-08-05T06:56:54.950Z,25.22
2022-08-05T06:57:57.478Z,25.17
2022-08-05T06:58:49.417Z,25.29
2022-08-05T06:59:56.490Z,25.23
2022-08-05T07:00:49.481Z,25.36
2022-08-05T07:01:52.852Z,25.65
2022-08-05T07:02:48.398Z,25.75
2022-08-05T07:03:50.070Z,25.68
2022-08-05T07:04:48.376Z,25.93
2022-08-05T07:05:48.369Z,26.25
2022-08-05T07:06:50.469Z,26.41
2022-08-05T07:07:48.368Z,26.73
2022-08-05T07:08:51.932Z,26.90
2022-08-05T07:09:49.335Z,27.20
2022-08-05T07:10:52.541Z,27.39
2022-08-05T07:11:51.692Z,27.47
2022-08-05T07:12:49.378Z,27.36
2022-08-05T07:13:59.261Z,27.27
2022-08-05T07:14:49.294Z,27.42
2022-08-05T07:16:01.602Z,27.36
2022-08-05T07:17:59.876Z,26.90
2022-08-05T07:18:02.423Z,27.02
2022-08-05T07:18:49.268Z,26.78
2022-08-05T07:20:31.481Z,26.71
2022-08-05T07:20:50.255Z,26.84
2022-08-05T07:21:59.881Z,26.93
2022-08-05T07:22:49.234Z,26.88
2022-08-05T07:23:49.159Z,27.07
2022-08-05T07:24:52.711Z,26.92
2022-08-05T07:25:56.423Z,26.65
2022-08-05T07:26:49.203Z,26.51
2022-08-05T07:27:57.363Z,26.43
2022-08-05T07:28:49.193Z,26.18
2022-08-05T07:30:24.260Z,25.87
2022-08-05T07:30:52.720Z,25.80
2022-08-05T07:31:54.685Z,25.58
2022-08-05T07:32:50.885Z,25.60
2022-08-05T07:33:48.161Z,25.48
2022-08-05T07:34:48.162Z,25.50
2022-08-05T07:36:04.970Z,25.54
2022-08-05T07:36:49.142Z,25.48
2022-08-05T07:37:48.159Z,25.40
2022-08-05T07:38:48.111Z,25.50
2022-08-05T07:40:04.004Z,25.58
2022-08-05T07:40:49.139Z,25.70
2022-08-05T07:42:13.588Z,25.85
2022-08-05T07:42:49.095Z,25.77
2022-08-05T07:43:48.073Z,25.85
2022-08-05T07:44:48.082Z,25.70
2022-08-05T07:45:57.623Z,25.72
2022-08-05T07:46:49.767Z,25.77
2022-08-05T07:47:48.040Z,25.69
2022-08-05T07:49:02.984Z,25.70
2022-08-05T07:49:54.241Z,25.77
2022-08-05T07:50:49.022Z,25.84
2022-08-05T07:51:53.841Z,25.83
2022-08-05T07:52:49.015Z,25.83
2022-08-05T07:53:50.087Z,25.96
2022-08-05T07:54:49.182Z,25.99
2022-08-05T07:56:05.490Z,26.21
2022-08-05T07:57:01.749Z,26.31
2022-08-05T07:57:58.826Z,26.34
2022-08-05T07:58:55.059Z,26.23
2022-08-05T07:59:49.171Z,26.15
2022-08-05T08:00:47.966Z,26.15
2022-08-05T08:01:52.356Z,26.07
2022-08-05T08:03:15.060Z,26.34
2022-08-05T08:03:51.365Z,26.38
2022-08-05T08:04:48.698Z,26.52
2022-08-05T08:05:49.604Z,26.53
2022-08-05T08:06:47.911Z,26.63
2022-08-05T08:07:59.133Z,26.47
2022-08-05T08:08:48.879Z,26.40
2022-08-05T08:09:48.078Z,26.47
2022-08-05T08:10:48.976Z,26.48
2022-08-05T08:11:59.005Z,26.55
2022-08-05T08:12:49.750Z,26.53
2022-08-05T08:14:00.402Z,26.51
2022-08-05T08:14:48.855Z,26.40
2022-08-05T08:16:34.791Z,26.34
2022-08-05T08:16:51.204Z,26.43
2022-08-05T08:17:52.512Z,26.25
2022-08-05T08:18:50.142Z,26.16
2022-08-05T08:20:21.418Z,26.19
2022-08-05T08:21:03.114Z,26.28
2022-08-05T08:21:48.785Z,26.21
2022-08-05T08:22:47.760Z,26.19
2022-08-05T08:24:02.530Z,26.29
2022-08-05T08:24:51.954Z,26.45
2022-08-05T08:25:59.979Z,26.60
2022-08-05T08:26:48.729Z,26.83
2022-08-05T08:27:51.249Z,26.97
2022-08-05T08:28:59.455Z,27.02
2022-08-05T08:30:06.485Z,27.02
2022-08-05T08:30:49.832Z,27.14
2022-08-05T08:31:48.381Z,27.08
2022-08-05T08:32:47.695Z,27.21
2022-08-05T08:33:51.625Z,27.45
2022-08-05T08:34:48.662Z,27.51
2022-08-05T08:35:53.969Z,27.64
2022-08-05T08:36:54.014Z,27.68
2022-08-05T08:37:51.835Z,27.70
2022-08-05T08:38:53.478Z,27.63
2022-08-05T08:39:49.676Z,27.48
2022-08-05T08:40:51.472Z,27.33
2022-08-05T08:41:51.299Z,27.21
2022-08-05T08:42:51.045Z,27.18
2022-08-05T08:45:20.620Z,27.30
2022-08-05T08:45:25.208Z,27.17
2022-08-05T08:45:48.572Z,27.18
2022-08-05T08:46:47.592Z,27.17
2022-08-05T08:48:11.849Z,27.33
2022-08-05T08:49:07.900Z,27.25
2022-08-05T08:50:22.566Z,27.10
2022-08-05T08:51:23.311Z,27.03
2022-08-05T08:52:06.135Z,27.07
2022-08-05T08:52:51.826Z,27.11
2022-08-05T08:53:47.524Z,27.17
2022-08-05T08:54:47.518Z,27.22
2022-08-05T08:56:04.734Z,27.26
2022-08-05T08:56:49.728Z,27.25
2022-08-05T08:57:48.427Z,27.15
2022-08-05T08:58:48.868Z,27.10
2022-08-05T08:59:47.520Z,27.17
2022-08-05T09:00:47.493Z,26.95
2022-08-05T09:01:57.460Z,27.07
2022-08-05T09:02:48.452Z,27.15
2022-08-05T09:03:47.566Z,27.47
2022-08-05T09:04:57.792Z,27.58
2022-08-05T09:06:08.501Z,27.77
2022-08-05T09:06:49.956Z,27.89
2022-08-05T09:07:57.769Z,27.89
2022-08-05T09:08:48.389Z,28.04
2022-08-05T09:09:47.387Z,28.00
2022-08-05T09:10:47.392Z,28.10
2022-08-05T09:11:50.789Z,28.07
2022-08-05T09:12:50.828Z,27.92
2022-08-05T09:14:09.786Z,28.08
2022-08-05T09:14:57.460Z,28.11
2022-08-05T09:15:48.351Z,28.29
2022-08-05T09:16:48.814Z,28.47
2022-08-05T09:17:49.706Z,28.52
2022-08-05T09:18:47.317Z,28.44
2022-08-05T09:20:01.827Z,28.48
2022-08-05T09:20:48.308Z,28.38
2022-08-05T09:22:23.205Z,28.32
2022-08-05T09:22:51.680Z,28.30
2022-08-05T09:23:47.280Z,28.22
2022-08-05T09:24:47.271Z,28.35
2022-08-05T09:26:02.518Z,28.23
2022-08-05T09:26:48.252Z,28.41
2022-08-05T09:28:04.857Z,28.30
2022-08-05T09:28:48.238Z,28.45
2022-08-05T09:29:47.990Z,28.54
2022-08-05T09:30:47.291Z,28.66
2022-08-05T09:32:40.772Z,28.75
2022-08-05T09:32:48.317Z,28.79
2022-08-05T09:33:47.191Z,28.79
2022-08-05T09:34:47.197Z,28.57
2022-08-05T09:35:47.178Z,28.45
2022-08-05T09:36:55.251Z,28.52
2022-08-05T09:38:12.500Z,28.49
2022-08-05T09:38:48.669Z,28.41
2022-08-05T09:39:52.324Z,28.37
2022-08-05T09:40:52.516Z,28.39
2022-08-05T09:41:47.672Z,28.47
2022-08-05T09:42:48.348Z,28.45
2022-08-05T09:43:49.441Z,28.60
2022-08-05T09:44:50.461Z,28.93
2022-08-05T09:46:06.791Z,28.97
2022-08-05T09:46:51.684Z,29.04
2022-08-05T09:47:56.007Z,29.24
2022-08-05T09:48:55.482Z,29.08
2022-08-05T09:50:02.269Z,29.32
2022-08-05T09:50:48.065Z,29.38
2022-08-05T09:51:50.040Z,29.32
2022-08-05T09:52:47.094Z,29.44
2022-08-05T09:53:54.443Z,29.39
2022-08-05T09:54:48.042Z,29.54
2022-08-05T09:55:58.643Z,29.68
2022-08-05T09:56:51.750Z,29.66
2022-08-05T09:57:47.023Z,29.61
2022-08-05T09:58:47.417Z,29.61
2022-08-05T09:59:46.996Z,29.47
2022-08-05T10:00:46.981Z,29.65
2022-08-05T10:01:47.985Z,29.66
2022-08-05T10:02:48.056Z,29.66
2022-08-05T10:03:58.738Z,29.36
2022-08-05T10:04:47.954Z,29.34
2022-08-05T10:05:46.958Z,29.38
2022-08-05T10:06:49.928Z,29.51
2022-08-05T10:08:36.790Z,29.42
2022-08-05T10:08:53.976Z,29.57
2022-08-05T10:09:47.945Z,29.57
2022-08-05T10:10:48.202Z,29.54
2022-08-05T10:11:46.902Z,29.51
2022-08-05T10:12:49.961Z,29.34
2022-08-05T10:13:48.195Z,29.36
2022-08-05T10:14:46.877Z,29.42
2022-08-05T10:15:46.888Z,29.38
2022-08-05T10:16:52.785Z,29.47
2022-08-05T10:17:56.689Z,29.51
2022-08-05T10:18:48.846Z,29.56
2022-08-05T10:20:04.000Z,29.61
2022-08-05T10:20:48.416Z,29.63
2022-08-05T10:21:46.843Z,29.61
2022-08-05T10:22:48.681Z,29.65
2022-08-05T10:23:59.899Z,29.75
2022-08-05T10:24:47.806Z,29.82
2022-08-05T10:25:46.809Z,29.87
2022-08-05T10:26:51.551Z,29.94
2022-08-05T10:28:12.846Z,30.03
2022-08-05T10:28:47.863Z,29.90
2022-08-05T10:30:06.913Z,29.84
2022-08-05T10:32:51.664Z,29.75
2022-08-05T10:32:52.922Z,29.84
2022-08-05T10:32:59.559Z,29.68
2022-08-05T10:33:52.252Z,29.51
2022-08-05T10:34:47.725Z,29.26
2022-08-05T10:35:49.690Z,29.19
2022-08-05T10:36:48.740Z,29.19
2022-08-05T10:37:46.771Z,29.27
2022-08-05T10:38:46.711Z,29.27
2022-08-05T10:39:58.960Z,29.17
2022-08-05T10:40:47.697Z,29.14
2022-08-05T10:41:47.402Z,29.29
2022-08-05T10:42:46.675Z,29.49
2022-08-05T10:43:46.659Z,29.50
2022-08-05T10:44:46.660Z,29.34
2022-08-05T10:45:46.650Z,29.34
2022-08-05T10:46:46.639Z,29.35
2022-08-05T10:47:56.183Z,29.50
2022-08-05T10:48:57.356Z,29.61
2022-08-05T10:49:49.100Z,29.54
2022-08-05T10:50:47.605Z,29.65
2022-08-05T10:51:57.585Z,29.61
2022-08-05T10:52:49.453Z,29.45
2022-08-05T10:53:46.599Z,29.31
2022-08-05T10:54:46.979Z,29.24
2022-08-05T10:56:03.656Z,29.35
2022-08-05T10:56:49.276Z,29.60
2022-08-05T10:57:46.564Z,29.54
2022-08-05T10:58:48.675Z,29.66
2022-08-05T11:00:02.878Z,29.66
2022-08-05T11:00:48.523Z,29.84
2022-08-05T11:01:54.233Z,30.05
2022-08-05T11:02:50.498Z,30.10
2022-08-05T11:03:46.560Z,30.03
2022-08-05T11:04:46.496Z,30.00
2022-08-05T11:05:46.520Z,29.98
2022-08-05T11:06:46.510Z,29.97
2022-08-05T11:08:01.453Z,29.91
2022-08-05T11:08:47.467Z,29.86
2022-08-05T11:09:47.144Z,29.76
2022-08-05T11:10:50.283Z,29.81
2022-08-05T11:11:53.527Z,29.84
2022-08-05T11:12:54.270Z,29.93
2022-08-05T11:13:55.040Z,30.05
2022-08-05T11:15:11.519Z,30.06
2022-08-05T11:16:00.662Z,30.16
2022-08-05T11:16:57.187Z,30.15
2022-08-05T11:17:57.318Z,30.19
2022-08-05T11:18:47.415Z,30.21
2022-08-05T11:20:17.625Z,30.25
2022-08-05T11:20:47.381Z,30.44
2022-08-05T11:21:49.559Z,30.30
2022-08-05T11:22:46.371Z,30.03
2022-08-05T11:24:04.102Z,29.84
2022-08-05T11:25:16.507Z,29.79
2022-08-05T11:26:05.098Z,29.82
2022-08-05T11:26:49.694Z,29.76
2022-08-05T11:27:51.836Z,29.76
2022-08-05T11:28:47.320Z,29.76
2022-08-05T11:29:46.310Z,29.91
2022-08-05T11:30:46.329Z,30.06
2022-08-05T11:31:57.453Z,30.09
2022-08-05T11:32:47.789Z,30.06
2022-08-05T11:33:47.995Z,30.16
2022-08-05T11:34:51.887Z,30.35
2022-08-05T11:36:08.031Z,30.28
2022-08-05T11:36:47.262Z,30.44
2022-08-05T11:38:28.729Z,30.32
2022-08-05T11:38:51.827Z,30.34
2022-08-05T11:39:48.132Z,30.30
2022-08-05T11:40:46.236Z,30.40
2022-08-05T11:42:01.334Z,30.27
2022-08-05T11:42:47.225Z,30.10
2022-08-05T11:44:00.891Z,30.15
2022-08-05T11:44:54.106Z,30.28
2022-08-05T11:46:27.192Z,30.25
2022-08-05T11:46:58.152Z,30.31
2022-08-05T11:47:48.673Z,30.25
2022-08-05T11:48:46.167Z,30.37
2022-08-05T11:49:49.600Z,30.43
2022-08-05T11:50:47.153Z,30.32
2022-08-05T11:51:49.603Z,30.32
2022-08-05T11:52:48.816Z,30.46
2022-08-05T11:53:46.124Z,30.43
2022-08-05T11:54:48.452Z,30.48
2022-08-05T11:55:47.123Z,30.31
2022-08-05T11:56:50.281Z,30.27
2022-08-05T11:58:10.318Z,30.00
2022-08-05T11:58:53.020Z,29.86
2022-08-05T11:59:49.693Z,29.69
2022-08-05T12:00:46.986Z,29.76
2022-08-05T12:01:47.066Z,29.81
2022-08-05T12:02:47.179Z,29.75
2022-08-05T12:03:55.808Z,29.72
2022-08-05T12:04:47.062Z,29.75
2022-08-05T12:05:47.044Z,29.61
2022-08-05T12:06:48.711Z,29.75
2022-08-05T12:08:10.384Z,30.00
2022-08-05T12:08:51.123Z,30.21
2022-08-05T12:09:53.332Z,30.44
2022-08-05T12:10:47.027Z,30.40
2022-08-05T12:11:45.993Z,30.46
2022-08-05T12:12:59.260Z,30.54
2022-08-05T12:13:48.499Z,30.66
2022-08-05T12:14:47.236Z,30.65
2022-08-05T12:15:49.922Z,30.57
2022-08-05T12:16:46.370Z,30.40
2022-08-05T12:18:03.986Z,30.51
2022-08-05T12:18:53.145Z,30.57
2022-08-05T12:20:17.114Z,30.66
2022-08-05T12:20:47.754Z,30.78
2022-08-05T12:21:45.971Z,30.75
2022-08-05T12:22:46.300Z,30.80
2022-08-05T12:23:46.876Z,30.90
2022-08-05T12:24:49.561Z,30.73
2022-08-05T12:25:45.895Z,30.63
2022-08-05T12:26:45.889Z,30.54
2022-08-05T12:27:53.128Z,30.47
2022-08-05T12:28:46.866Z,30.46
2022-08-05T12:29:45.854Z,30.47
2022-08-05T12:30:46.856Z,30.39
2022-08-05T12:31:48.270Z,30.40
2022-08-05T12:32:46.853Z,30.51
2022-08-05T12:33:45.848Z,30.57
2022-08-05T12:34:45.825Z,30.66
2022-08-05T12:35:45.902Z,30.54
2022-08-05T12:36:45.895Z,30.34
2022-08-05T12:37:45.800Z,30.46
2022-08-05T12:38:45.785Z,30.50
2022-08-05T12:39:51.403Z,30.57
2022-08-05T12:40:46.777Z,30.57
2022-08-05T12:41:45.770Z,30.47
2022-08-05T12:42:45.754Z,30.53
2022-08-05T12:43:45.752Z,30.59
2022-08-05T12:44:45.740Z,30.63
2022-08-05T12:45:50.140Z,30.75
2022-08-05T12:46:45.837Z,30.78
2022-08-05T12:48:01.415Z,30.85
2022-08-05T12:48:46.705Z,30.72
2022-08-05T12:50:03.483Z,30.68
2022-08-05T12:50:46.700Z,30.81
2022-08-05T12:52:12.421Z,30.84
2022-08-05T12:52:46.703Z,30.83
2022-08-05T12:53:55.711Z,30.69